Airfield :
LOGIN :

Register | Disclaimer

   EN    FR    IT 

 










Legend :    VFR   Marginal VFR   IFR   Intensive IFR   Very Intensive IFR
Visi :
Ceiling :
>= 8 km
>= 3000ft
5 to 8 km
1000 to 3000 ft
1500m to 5 km
500 to 1000 ft
800 to 1500m
200 to 500 ft
< 800m
< 200 ft
Symbols :   Thunderstorms  Fog  Heavy snow  Heavy precipitations  Wind > 20 kt
SIGMETs :     Misc.  Thunderstorms  Icing  Turbulence  Mountain Waves  Volcanic Ashes







- Airport Elevation : 256 ft
- IATA code : CFR
- Download approach charts


LFRK - Caen

CURRENT METAR :
  • 222330Z AUTO 27004KT 9999 FEW013 13/12 Q1018

EXPIRED METARs :
  • 222300Z AUTO 28006KT 9999 FEW020 13/12 Q1018
  • 222230Z AUTO 26005KT 9999 FEW020 14/12 Q1018
  • 222200Z AUTO 24004KT CAVOK 14/12 Q1017
  • 222130Z AUTO 27005KT 9999 SCT035 15/12 Q1017
  • 222100Z AUTO 28005KT 9999 OVC034 16/13 Q1017

TAF TAF LFRK
Valid from the 22 at 15:00 until the 23 at 00:00 UTC


221400Z 2215/2224 28010KT 9999 BKN025
BECMG 2216/2218 33010KT
BECMG 2218/2221 28008KT
Met : +33 2 31 26 68 11
No reported NOTAMs for that airfield.



MET'MAP, your aeronautical weather chart ! - Copyright ORBIFLY December 2007 - Disclaimer

ORBIFLY MET'MAP TEAM :

Programming & Development : Alexandra Zaïnal
Concept & Development : Baudouin d'Aumeries
Co-Development & Prog : Marc-Olivier Méhu
Technical & hardware support : Manuel Goepfert

Contact : metmap@orbifly.com




SOURCES & CREDITS :

   NOAA